sensor_id;sensor_type;location;lat;lon;timestamp;P1;durP1;ratioP1;P2;durP2;ratioP2
73359;SDS011;63092;43.582;19.528;2024-03-02T00:01:33;35.25;;;15.80;;
73359;SDS011;63092;43.582;19.528;2024-03-02T00:03:59;30.10;;;15.13;;
73359;SDS011;63092;43.582;19.528;2024-03-02T00:06:25;40.13;;;17.23;;
73359;SDS011;63092;43.582;19.528;2024-03-02T00:08:51;32.13;;;16.25;;
73359;SDS011;63092;43.582;19.528;2024-03-02T00:11:21;30.65;;;14.90;;
73359;SDS011;63092;43.582;19.528;2024-03-02T00:13:46;37.25;;;17.45;;
73359;SDS011;63092;43.582;19.528;2024-03-02T00:16:12;36.03;;;17.08;;
73359;SDS011;63092;43.582;19.528;2024-03-02T00:18:38;44.60;;;20.13;;
73359;SDS011;63092;43.582;19.528;2024-03-02T00:21:04;49.80;;;26.40;;
73359;SDS011;63092;43.582;19.528;2024-03-02T00:23:34;43.15;;;21.95;;
73359;SDS011;63092;43.582;19.528;2024-03-02T00:26:00;36.53;;;17.80;;
73359;SDS011;63092;43.582;19.528;2024-03-02T00:28:27;49.95;;;22.02;;
73359;SDS011;63092;43.582;19.528;2024-03-02T00:30:55;49.25;;;20.35;;
73359;SDS011;63092;43.582;19.528;2024-03-02T00:33:30;40.95;;;20.13;;
73359;SDS011;63092;43.582;19.528;2024-03-02T00:36:01;33.22;;;17.30;;
73359;SDS011;63092;43.582;19.528;2024-03-02T00:38:31;35.70;;;16.58;;
73359;SDS011;63092;43.582;19.528;2024-03-02T00:41:03;35.80;;;15.55;;
73359;SDS011;63092;43.582;19.528;2024-03-02T00:46:17;37.05;;;16.52;;
73359;SDS011;63092;43.582;19.528;2024-03-02T00:49:26;31.63;;;14.68;;
73359;SDS011;63092;43.582;19.528;2024-03-02T00:51:48;34.72;;;14.40;;
73359;SDS011;63092;43.582;19.528;2024-03-02T00:54:15;32.08;;;14.85;;
73359;SDS011;63092;43.582;19.528;2024-03-02T00:56:49;34.72;;;14.95;;
73359;SDS011;63092;43.582;19.528;2024-03-02T00:59:16;31.00;;;14.52;;
73359;SDS011;63092;43.582;19.528;2024-03-02T01:01:42;29.17;;;13.98;;
73359;SDS011;63092;43.582;19.528;2024-03-02T01:04:08;31.60;;;15.13;;
73359;SDS011;63092;43.582;19.528;2024-03-02T01:06:34;35.22;;;15.68;;
73359;SDS011;63092;43.582;19.528;2024-03-02T01:09:01;32.45;;;15.00;;
73359;SDS011;63092;43.582;19.528;2024-03-02T01:11:27;35.72;;;15.45;;
73359;SDS011;63092;43.582;19.528;2024-03-02T01:13:53;35.63;;;17.70;;
73359;SDS011;63092;43.582;19.528;2024-03-02T01:16:19;38.00;;;17.92;;
73359;SDS011;63092;43.582;19.528;2024-03-02T01:18:45;38.17;;;16.90;;
73359;SDS011;63092;43.582;19.528;2024-03-02T01:21:11;38.28;;;16.88;;
73359;SDS011;63092;43.582;19.528;2024-03-02T01:23:38;34.38;;;15.68;;
73359;SDS011;63092;43.582;19.528;2024-03-02T01:26:03;31.75;;;15.20;;
73359;SDS011;63092;43.582;19.528;2024-03-02T01:28:29;33.85;;;16.63;;
73359;SDS011;63092;43.582;19.528;2024-03-02T01:30:55;37.47;;;17.38;;
73359;SDS011;63092;43.582;19.528;2024-03-02T01:33:21;35.28;;;16.33;;
73359;SDS011;63092;43.582;19.528;2024-03-02T01:35:46;32.58;;;16.50;;
73359;SDS011;63092;43.582;19.528;2024-03-02T01:38:12;27.15;;;14.35;;
73359;SDS011;63092;43.582;19.528;2024-03-02T01:40:38;34.60;;;16.08;;
73359;SDS011;63092;43.582;19.528;2024-03-02T01:43:04;32.17;;;15.23;;
73359;SDS011;63092;43.582;19.528;2024-03-02T01:45:31;31.55;;;15.52;;
73359;SDS011;63092;43.582;19.528;2024-03-02T01:47:57;36.42;;;17.55;;
73359;SDS011;63092;43.582;19.528;2024-03-02T01:50:29;35.38;;;16.90;;
73359;SDS011;63092;43.582;19.528;2024-03-02T01:52:57;31.63;;;16.05;;
73359;SDS011;63092;43.582;19.528;2024-03-02T01:55:23;40.97;;;16.77;;
73359;SDS011;63092;43.582;19.528;2024-03-02T01:57:49;27.98;;;15.50;;
73359;SDS011;63092;43.582;19.528;2024-03-02T02:00:22;26.95;;;14.85;;
73359;SDS011;63092;43.582;19.528;2024-03-02T02:02:50;39.67;;;19.00;;
73359;SDS011;63092;43.582;19.528;2024-03-02T02:05:16;40.60;;;19.23;;
73359;SDS011;63092;43.582;19.528;2024-03-02T02:07:42;38.33;;;18.40;;
73359;SDS011;63092;43.582;19.528;2024-03-02T02:10:08;40.65;;;18.10;;
73359;SDS011;63092;43.582;19.528;2024-03-02T02:12:35;31.27;;;16.73;;
73359;SDS011;63092;43.582;19.528;2024-03-02T02:15:01;28.33;;;15.25;;
73359;SDS011;63092;43.582;19.528;2024-03-02T02:17:27;30.63;;;16.08;;
73359;SDS011;63092;43.582;19.528;2024-03-02T02:19:53;31.95;;;15.48;;
73359;SDS011;63092;43.582;19.528;2024-03-02T02:22:19;30.05;;;15.88;;
73359;SDS011;63092;43.582;19.528;2024-03-02T02:24:44;38.08;;;17.77;;
73359;SDS011;63092;43.582;19.528;2024-03-02T02:27:10;37.55;;;17.58;;
73359;SDS011;63092;43.582;19.528;2024-03-02T02:29:37;31.48;;;16.00;;
73359;SDS011;63092;43.582;19.528;2024-03-02T02:32:03;39.00;;;17.52;;
73359;SDS011;63092;43.582;19.528;2024-03-02T02:34:29;34.35;;;16.48;;
73359;SDS011;63092;43.582;19.528;2024-03-02T02:36:55;38.50;;;17.80;;
73359;SDS011;63092;43.582;19.528;2024-03-02T02:39:21;37.70;;;17.45;;
73359;SDS011;63092;43.582;19.528;2024-03-02T02:41:47;40.35;;;18.67;;
73359;SDS011;63092;43.582;19.528;2024-03-02T02:44:13;37.13;;;17.90;;
73359;SDS011;63092;43.582;19.528;2024-03-02T02:46:39;40.97;;;17.05;;
73359;SDS011;63092;43.582;19.528;2024-03-02T02:49:05;67.28;;;24.60;;
73359;SDS011;63092;43.582;19.528;2024-03-02T02:51:31;44.25;;;19.35;;
73359;SDS011;63092;43.582;19.528;2024-03-02T02:53:57;56.72;;;20.33;;
73359;SDS011;63092;43.582;19.528;2024-03-02T02:56:23;49.45;;;19.88;;
73359;SDS011;63092;43.582;19.528;2024-03-02T02:58:49;51.78;;;20.83;;
73359;SDS011;63092;43.582;19.528;2024-03-02T03:01:15;53.38;;;21.67;;
73359;SDS011;63092;43.582;19.528;2024-03-02T03:03:44;59.05;;;23.80;;
73359;SDS011;63092;43.582;19.528;2024-03-02T03:06:10;47.58;;;20.55;;
73359;SDS011;63092;43.582;19.528;2024-03-02T03:08:36;42.38;;;18.50;;
73359;SDS011;63092;43.582;19.528;2024-03-02T03:11:03;40.08;;;17.38;;
73359;SDS011;63092;43.582;19.528;2024-03-02T03:13:32;35.83;;;16.17;;
73359;SDS011;63092;43.582;19.528;2024-03-02T03:15:58;37.00;;;15.55;;
73359;SDS011;63092;43.582;19.528;2024-03-02T03:18:24;40.47;;;16.83;;
73359;SDS011;63092;43.582;19.528;2024-03-02T03:20:50;45.13;;;18.50;;
73359;SDS011;63092;43.582;19.528;2024-03-02T03:23:16;40.05;;;16.80;;
73359;SDS011;63092;43.582;19.528;2024-03-02T03:25:42;52.05;;;18.48;;
73359;SDS011;63092;43.582;19.528;2024-03-02T03:28:08;43.22;;;16.17;;
73359;SDS011;63092;43.582;19.528;2024-03-02T03:30:37;39.65;;;15.63;;
73359;SDS011;63092;43.582;19.528;2024-03-02T03:33:04;37.22;;;14.23;;
73359;SDS011;63092;43.582;19.528;2024-03-02T03:35:33;37.28;;;14.05;;
73359;SDS011;63092;43.582;19.528;2024-03-02T03:37:59;36.35;;;14.15;;
73359;SDS011;63092;43.582;19.528;2024-03-02T03:40:25;39.97;;;14.88;;
73359;SDS011;63092;43.582;19.528;2024-03-02T03:42:51;32.00;;;14.50;;
73359;SDS011;63092;43.582;19.528;2024-03-02T03:45:17;37.38;;;14.70;;
73359;SDS011;63092;43.582;19.528;2024-03-02T03:47:43;31.63;;;13.23;;
73359;SDS011;63092;43.582;19.528;2024-03-02T03:50:08;32.65;;;15.05;;
73359;SDS011;63092;43.582;19.528;2024-03-02T03:52:35;34.33;;;14.05;;
73359;SDS011;63092;43.582;19.528;2024-03-02T03:55:00;34.05;;;15.70;;
73359;SDS011;63092;43.582;19.528;2024-03-02T03:57:26;37.15;;;14.93;;
73359;SDS011;63092;43.582;19.528;2024-03-02T03:59:52;37.58;;;16.13;;
73359;SDS011;63092;43.582;19.528;2024-03-02T04:02:18;34.58;;;14.57;;
73359;SDS011;63092;43.582;19.528;2024-03-02T04:04:44;30.63;;;12.55;;
73359;SDS011;63092;43.582;19.528;2024-03-02T04:07:10;28.83;;;13.40;;
73359;SDS011;63092;43.582;19.528;2024-03-02T04:09:35;30.23;;;13.95;;
73359;SDS011;63092;43.582;19.528;2024-03-02T04:12:01;30.75;;;14.50;;
73359;SDS011;63092;43.582;19.528;2024-03-02T04:14:27;28.73;;;13.30;;
73359;SDS011;63092;43.582;19.528;2024-03-02T04:16:53;32.05;;;12.43;;
73359;SDS011;63092;43.582;19.528;2024-03-02T04:19:18;23.10;;;12.23;;
73359;SDS011;63092;43.582;19.528;2024-03-02T04:21:44;22.95;;;11.77;;
73359;SDS011;63092;43.582;19.528;2024-03-02T04:24:10;26.35;;;11.98;;
73359;SDS011;63092;43.582;19.528;2024-03-02T04:26:36;28.83;;;12.75;;
73359;SDS011;63092;43.582;19.528;2024-03-02T04:29:01;26.17;;;12.15;;
73359;SDS011;63092;43.582;19.528;2024-03-02T04:31:27;23.23;;;10.00;;
73359;SDS011;63092;43.582;19.528;2024-03-02T04:33:53;25.92;;;10.65;;
73359;SDS011;63092;43.582;19.528;2024-03-02T04:36:19;23.70;;;9.18;;
73359;SDS011;63092;43.582;19.528;2024-03-02T04:38:46;23.45;;;9.45;;
73359;SDS011;63092;43.582;19.528;2024-03-02T04:41:12;23.73;;;8.95;;
73359;SDS011;63092;43.582;19.528;2024-03-02T04:43:37;22.95;;;9.20;;
73359;SDS011;63092;43.582;19.528;2024-03-02T04:46:03;25.50;;;9.90;;
73359;SDS011;63092;43.582;19.528;2024-03-02T04:48:30;29.73;;;10.30;;
73359;SDS011;63092;43.582;19.528;2024-03-02T04:50:56;23.42;;;8.82;;
73359;SDS011;63092;43.582;19.528;2024-03-02T04:53:22;27.77;;;10.77;;
73359;SDS011;63092;43.582;19.528;2024-03-02T04:55:47;23.48;;;9.80;;
73359;SDS011;63092;43.582;19.528;2024-03-02T04:58:19;27.38;;;11.35;;
73359;SDS011;63092;43.582;19.528;2024-03-02T05:00:45;24.38;;;11.15;;
73359;SDS011;63092;43.582;19.528;2024-03-02T05:03:11;27.17;;;12.02;;
73359;SDS011;63092;43.582;19.528;2024-03-02T05:05:38;23.67;;;10.45;;
73359;SDS011;63092;43.582;19.528;2024-03-02T05:08:04;23.10;;;10.30;;
73359;SDS011;63092;43.582;19.528;2024-03-02T05:10:30;24.08;;;11.18;;
73359;SDS011;63092;43.582;19.528;2024-03-02T05:12:56;25.77;;;10.70;;
73359;SDS011;63092;43.582;19.528;2024-03-02T05:15:22;23.27;;;11.05;;
73359;SDS011;63092;43.582;19.528;2024-03-02T05:17:48;24.90;;;11.10;;
73359;SDS011;63092;43.582;19.528;2024-03-02T05:20:13;27.88;;;10.63;;
73359;SDS011;63092;43.582;19.528;2024-03-02T05:22:39;25.23;;;11.13;;
73359;SDS011;63092;43.582;19.528;2024-03-02T05:25:05;32.90;;;13.00;;
73359;SDS011;63092;43.582;19.528;2024-03-02T05:27:31;23.48;;;10.88;;
73359;SDS011;63092;43.582;19.528;2024-03-02T05:30:03;28.90;;;12.57;;
73359;SDS011;63092;43.582;19.528;2024-03-02T05:32:31;32.05;;;15.25;;
73359;SDS011;63092;43.582;19.528;2024-03-02T05:34:57;27.33;;;13.02;;
73359;SDS011;63092;43.582;19.528;2024-03-02T05:37:23;27.90;;;10.75;;
73359;SDS011;63092;43.582;19.528;2024-03-02T05:39:48;21.52;;;9.73;;
73359;SDS011;63092;43.582;19.528;2024-03-02T05:42:14;29.17;;;13.45;;
73359;SDS011;63092;43.582;19.528;2024-03-02T05:44:41;25.60;;;12.73;;
73359;SDS011;63092;43.582;19.528;2024-03-02T05:47:07;26.40;;;12.95;;
73359;SDS011;63092;43.582;19.528;2024-03-02T05:49:35;28.30;;;13.43;;
73359;SDS011;63092;43.582;19.528;2024-03-02T05:52:01;36.17;;;14.38;;
73359;SDS011;63092;43.582;19.528;2024-03-02T05:54:28;40.30;;;18.83;;
73359;SDS011;63092;43.582;19.528;2024-03-02T05:56:53;45.58;;;22.08;;
73359;SDS011;63092;43.582;19.528;2024-03-02T05:59:19;32.38;;;15.23;;
73359;SDS011;63092;43.582;19.528;2024-03-02T06:01:45;50.90;;;24.23;;
73359;SDS011;63092;43.582;19.528;2024-03-02T06:04:12;34.00;;;17.02;;
73359;SDS011;63092;43.582;19.528;2024-03-02T06:06:39;27.58;;;12.32;;
73359;SDS011;63092;43.582;19.528;2024-03-02T06:09:05;22.73;;;10.30;;
73359;SDS011;63092;43.582;19.528;2024-03-02T06:11:37;23.52;;;11.07;;
73359;SDS011;63092;43.582;19.528;2024-03-02T06:14:04;42.17;;;20.10;;
73359;SDS011;63092;43.582;19.528;2024-03-02T06:16:33;27.83;;;14.30;;
73359;SDS011;63092;43.582;19.528;2024-03-02T06:18:59;25.95;;;11.85;;
73359;SDS011;63092;43.582;19.528;2024-03-02T06:21:28;25.52;;;11.27;;
73359;SDS011;63092;43.582;19.528;2024-03-02T06:23:54;29.13;;;11.35;;
73359;SDS011;63092;43.582;19.528;2024-03-02T06:26:21;25.95;;;11.07;;
73359;SDS011;63092;43.582;19.528;2024-03-02T06:28:47;25.98;;;12.27;;
73359;SDS011;63092;43.582;19.528;2024-03-02T06:31:13;37.83;;;16.55;;
73359;SDS011;63092;43.582;19.528;2024-03-02T06:33:39;23.88;;;12.18;;
73359;SDS011;63092;43.582;19.528;2024-03-02T06:36:05;29.52;;;13.70;;
73359;SDS011;63092;43.582;19.528;2024-03-02T06:38:33;20.15;;;9.70;;
73359;SDS011;63092;43.582;19.528;2024-03-02T06:40:59;25.52;;;11.25;;
73359;SDS011;63092;43.582;19.528;2024-03-02T06:43:25;22.67;;;11.02;;
73359;SDS011;63092;43.582;19.528;2024-03-02T06:45:51;30.02;;;14.82;;
73359;SDS011;63092;43.582;19.528;2024-03-02T06:48:17;29.00;;;14.30;;
73359;SDS011;63092;43.582;19.528;2024-03-02T06:50:49;40.22;;;19.63;;
73359;SDS011;63092;43.582;19.528;2024-03-02T06:53:15;46.33;;;21.65;;
73359;SDS011;63092;43.582;19.528;2024-03-02T06:58:11;29.58;;;14.48;;
73359;SDS011;63092;43.582;19.528;2024-03-02T07:00:37;31.70;;;13.63;;
73359;SDS011;63092;43.582;19.528;2024-03-02T07:03:03;34.58;;;15.73;;
73359;SDS011;63092;43.582;19.528;2024-03-02T07:05:29;38.58;;;18.58;;
73359;SDS011;63092;43.582;19.528;2024-03-02T07:07:55;45.70;;;20.55;;
73359;SDS011;63092;43.582;19.528;2024-03-02T07:10:20;39.85;;;19.52;;
73359;SDS011;63092;43.582;19.528;2024-03-02T07:12:46;33.17;;;16.88;;
73359;SDS011;63092;43.582;19.528;2024-03-02T07:15:12;33.70;;;17.38;;
73359;SDS011;63092;43.582;19.528;2024-03-02T07:17:55;34.53;;;18.48;;
73359;SDS011;63092;43.582;19.528;2024-03-02T07:20:21;35.85;;;16.25;;
73359;SDS011;63092;43.582;19.528;2024-03-02T07:22:46;39.25;;;18.80;;
73359;SDS011;63092;43.582;19.528;2024-03-02T07:25:12;34.88;;;16.48;;
73359;SDS011;63092;43.582;19.528;2024-03-02T07:27:38;35.95;;;19.02;;
73359;SDS011;63092;43.582;19.528;2024-03-02T07:30:05;39.95;;;20.25;;
73359;SDS011;63092;43.582;19.528;2024-03-02T07:32:31;48.88;;;26.45;;
73359;SDS011;63092;43.582;19.528;2024-03-02T07:34:57;48.90;;;26.35;;
73359;SDS011;63092;43.582;19.528;2024-03-02T07:37:23;48.38;;;26.60;;
73359;SDS011;63092;43.582;19.528;2024-03-02T07:39:49;48.58;;;23.67;;
73359;SDS011;63092;43.582;19.528;2024-03-02T07:42:15;48.38;;;23.92;;
73359;SDS011;63092;43.582;19.528;2024-03-02T07:44:41;41.30;;;22.20;;
73359;SDS011;63092;43.582;19.528;2024-03-02T07:47:07;40.00;;;21.13;;
73359;SDS011;63092;43.582;19.528;2024-03-02T07:49:33;44.88;;;21.67;;
73359;SDS011;63092;43.582;19.528;2024-03-02T07:51:59;47.75;;;21.80;;
73359;SDS011;63092;43.582;19.528;2024-03-02T07:54:25;50.08;;;25.25;;
73359;SDS011;63092;43.582;19.528;2024-03-02T07:56:51;50.13;;;23.75;;
73359;SDS011;63092;43.582;19.528;2024-03-02T07:59:16;46.00;;;21.58;;
73359;SDS011;63092;43.582;19.528;2024-03-02T08:01:42;37.00;;;17.88;;
73359;SDS011;63092;43.582;19.528;2024-03-02T08:04:08;36.40;;;15.70;;
73359;SDS011;63092;43.582;19.528;2024-03-02T08:06:34;28.25;;;14.02;;
73359;SDS011;63092;43.582;19.528;2024-03-02T08:09:00;29.88;;;15.80;;
73359;SDS011;63092;43.582;19.528;2024-03-02T08:11:26;29.48;;;15.02;;
73359;SDS011;63092;43.582;19.528;2024-03-02T08:13:52;27.90;;;13.80;;
73359;SDS011;63092;43.582;19.528;2024-03-02T08:16:20;34.70;;;14.43;;
73359;SDS011;63092;43.582;19.528;2024-03-02T08:18:50;33.67;;;17.35;;
73359;SDS011;63092;43.582;19.528;2024-03-02T08:21:16;26.15;;;12.50;;
73359;SDS011;63092;43.582;19.528;2024-03-02T08:23:42;20.38;;;9.25;;
73359;SDS011;63092;43.582;19.528;2024-03-02T08:26:09;18.52;;;7.43;;
73359;SDS011;63092;43.582;19.528;2024-03-02T08:28:35;18.17;;;8.63;;
73359;SDS011;63092;43.582;19.528;2024-03-02T08:31:05;18.20;;;7.80;;
73359;SDS011;63092;43.582;19.528;2024-03-02T08:33:32;16.15;;;5.97;;
73359;SDS011;63092;43.582;19.528;2024-03-02T08:35:57;18.33;;;7.40;;
73359;SDS011;63092;43.582;19.528;2024-03-02T08:38:24;11.07;;;5.10;;
73359;SDS011;63092;43.582;19.528;2024-03-02T08:40:50;15.30;;;6.00;;
73359;SDS011;63092;43.582;19.528;2024-03-02T08:43:17;13.05;;;5.75;;
73359;SDS011;63092;43.582;19.528;2024-03-02T08:45:43;14.13;;;6.07;;
73359;SDS011;63092;43.582;19.528;2024-03-02T08:48:09;21.10;;;8.63;;
73359;SDS011;63092;43.582;19.528;2024-03-02T08:50:35;13.80;;;5.35;;
73359;SDS011;63092;43.582;19.528;2024-03-02T08:53:03;22.27;;;6.57;;
73359;SDS011;63092;43.582;19.528;2024-03-02T08:55:29;16.42;;;6.65;;
73359;SDS011;63092;43.582;19.528;2024-03-02T08:57:55;24.88;;;7.28;;
73359;SDS011;63092;43.582;19.528;2024-03-02T09:00:21;24.25;;;7.47;;
73359;SDS011;63092;43.582;19.528;2024-03-02T09:02:47;19.75;;;6.47;;
73359;SDS011;63092;43.582;19.528;2024-03-02T09:05:13;31.13;;;12.25;;
73359;SDS011;63092;43.582;19.528;2024-03-02T09:07:39;14.32;;;5.30;;
73359;SDS011;63092;43.582;19.528;2024-03-02T09:10:05;18.25;;;4.55;;
73359;SDS011;63092;43.582;19.528;2024-03-02T09:12:32;15.52;;;6.15;;
73359;SDS011;63092;43.582;19.528;2024-03-02T09:14:59;17.83;;;4.88;;
73359;SDS011;63092;43.582;19.528;2024-03-02T09:17:25;13.05;;;3.30;;
73359;SDS011;63092;43.582;19.528;2024-03-02T09:19:51;12.13;;;3.55;;
73359;SDS011;63092;43.582;19.528;2024-03-02T09:22:20;13.75;;;3.70;;
73359;SDS011;63092;43.582;19.528;2024-03-02T09:24:47;10.98;;;3.03;;
73359;SDS011;63092;43.582;19.528;2024-03-02T09:27:12;8.88;;;2.75;;
73359;SDS011;63092;43.582;19.528;2024-03-02T09:29:38;54.08;;;23.80;;
73359;SDS011;63092;43.582;19.528;2024-03-02T09:32:04;18.48;;;7.88;;
73359;SDS011;63092;43.582;19.528;2024-03-02T09:34:31;9.80;;;3.45;;
73359;SDS011;63092;43.582;19.528;2024-03-02T09:36:57;11.40;;;4.20;;
73359;SDS011;63092;43.582;19.528;2024-03-02T09:39:23;10.52;;;3.28;;
73359;SDS011;63092;43.582;19.528;2024-03-02T09:41:50;14.15;;;4.38;;
73359;SDS011;63092;43.582;19.528;2024-03-02T09:44:16;10.23;;;3.72;;
73359;SDS011;63092;43.582;19.528;2024-03-02T09:46:42;11.32;;;3.17;;
73359;SDS011;63092;43.582;19.528;2024-03-02T09:49:09;8.98;;;3.22;;
73359;SDS011;63092;43.582;19.528;2024-03-02T09:51:36;13.40;;;5.50;;
73359;SDS011;63092;43.582;19.528;2024-03-02T09:54:02;12.73;;;5.15;;
73359;SDS011;63092;43.582;19.528;2024-03-02T09:56:29;18.70;;;7.50;;
73359;SDS011;63092;43.582;19.528;2024-03-02T09:58:54;17.35;;;5.45;;
73359;SDS011;63092;43.582;19.528;2024-03-02T10:01:20;11.18;;;4.68;;
73359;SDS011;63092;43.582;19.528;2024-03-02T10:03:46;14.60;;;6.18;;
73359;SDS011;63092;43.582;19.528;2024-03-02T10:06:19;12.52;;;4.95;;
73359;SDS011;63092;43.582;19.528;2024-03-02T10:08:45;9.75;;;2.75;;
73359;SDS011;63092;43.582;19.528;2024-03-02T10:11:23;15.50;;;4.07;;
73359;SDS011;63092;43.582;19.528;2024-03-02T10:14:08;13.23;;;7.20;;
73359;SDS011;63092;43.582;19.528;2024-03-02T10:16:39;10.00;;;3.80;;
73359;SDS011;63092;43.582;19.528;2024-03-02T10:19:19;10.35;;;3.15;;
73359;SDS011;63092;43.582;19.528;2024-03-02T10:21:49;6.57;;;2.30;;
73359;SDS011;63092;43.582;19.528;2024-03-02T10:24:19;11.38;;;4.22;;
73359;SDS011;63092;43.582;19.528;2024-03-02T10:26:46;11.80;;;4.50;;
73359;SDS011;63092;43.582;19.528;2024-03-02T10:29:12;12.13;;;4.90;;
73359;SDS011;63092;43.582;19.528;2024-03-02T10:31:38;10.68;;;2.65;;
73359;SDS011;63092;43.582;19.528;2024-03-02T10:34:05;6.72;;;2.97;;
73359;SDS011;63092;43.582;19.528;2024-03-02T10:36:34;8.43;;;2.97;;
73359;SDS011;63092;43.582;19.528;2024-03-02T10:41:36;4.82;;;1.92;;
73359;SDS011;63092;43.582;19.528;2024-03-02T10:44:04;7.65;;;2.67;;
73359;SDS011;63092;43.582;19.528;2024-03-02T10:46:32;8.20;;;3.42;;
73359;SDS011;63092;43.582;19.528;2024-03-02T10:51:27;5.53;;;1.85;;
73359;SDS011;63092;43.582;19.528;2024-03-02T10:53:56;4.78;;;2.17;;
73359;SDS011;63092;43.582;19.528;2024-03-02T10:56:32;15.23;;;5.30;;
73359;SDS011;63092;43.582;19.528;2024-03-02T10:59:03;6.68;;;2.03;;
73359;SDS011;63092;43.582;19.528;2024-03-02T11:01:41;6.25;;;2.70;;
73359;SDS011;63092;43.582;19.528;2024-03-02T11:04:09;7.60;;;3.05;;
73359;SDS011;63092;43.582;19.528;2024-03-02T11:06:37;5.82;;;1.70;;
73359;SDS011;63092;43.582;19.528;2024-03-02T11:09:07;4.05;;;1.83;;
73359;SDS011;63092;43.582;19.528;2024-03-02T11:11:39;11.00;;;4.05;;
73359;SDS011;63092;43.582;19.528;2024-03-02T11:14:09;5.53;;;2.20;;
73359;SDS011;63092;43.582;19.528;2024-03-02T11:16:41;5.85;;;2.00;;
73359;SDS011;63092;43.582;19.528;2024-03-02T11:19:11;5.15;;;1.75;;
73359;SDS011;63092;43.582;19.528;2024-03-02T11:21:38;7.18;;;2.58;;
73359;SDS011;63092;43.582;19.528;2024-03-02T11:26:49;4.40;;;2.40;;
73359;SDS011;63092;43.582;19.528;2024-03-02T11:32:04;3.78;;;1.30;;
73359;SDS011;63092;43.582;19.528;2024-03-02T11:34:41;5.78;;;1.70;;
73359;SDS011;63092;43.582;19.528;2024-03-02T11:37:12;4.80;;;1.77;;
73359;SDS011;63092;43.582;19.528;2024-03-02T11:39:39;5.22;;;1.67;;
73359;SDS011;63092;43.582;19.528;2024-03-02T11:42:08;6.18;;;1.83;;
73359;SDS011;63092;43.582;19.528;2024-03-02T11:44:35;4.75;;;1.95;;
73359;SDS011;63092;43.582;19.528;2024-03-02T11:47:05;7.80;;;2.13;;
73359;SDS011;63092;43.582;19.528;2024-03-02T11:52:17;10.20;;;2.42;;
73359;SDS011;63092;43.582;19.528;2024-03-02T11:54:44;6.95;;;3.13;;
73359;SDS011;63092;43.582;19.528;2024-03-02T11:57:17;11.23;;;4.75;;
73359;SDS011;63092;43.582;19.528;2024-03-02T11:59:47;7.65;;;2.70;;
73359;SDS011;63092;43.582;19.528;2024-03-02T12:02:20;7.22;;;3.58;;
73359;SDS011;63092;43.582;19.528;2024-03-02T12:04:47;32.42;;;10.63;;
73359;SDS011;63092;43.582;19.528;2024-03-02T12:07:20;31.55;;;12.25;;
73359;SDS011;63092;43.582;19.528;2024-03-02T12:09:48;38.05;;;15.30;;
73359;SDS011;63092;43.582;19.528;2024-03-02T12:12:14;6.47;;;2.55;;
73359;SDS011;63092;43.582;19.528;2024-03-02T12:14:49;6.93;;;2.65;;
73359;SDS011;63092;43.582;19.528;2024-03-02T12:17:17;11.52;;;3.58;;
73359;SDS011;63092;43.582;19.528;2024-03-02T12:19:44;5.63;;;1.98;;
73359;SDS011;63092;43.582;19.528;2024-03-02T12:22:13;15.88;;;5.32;;
73359;SDS011;63092;43.582;19.528;2024-03-02T12:24:40;7.75;;;2.20;;
73359;SDS011;63092;43.582;19.528;2024-03-02T12:29:36;5.63;;;2.80;;
73359;SDS011;63092;43.582;19.528;2024-03-02T12:32:03;8.30;;;2.10;;
73359;SDS011;63092;43.582;19.528;2024-03-02T12:34:30;4.78;;;2.50;;
73359;SDS011;63092;43.582;19.528;2024-03-02T12:36:56;7.82;;;2.80;;
73359;SDS011;63092;43.582;19.528;2024-03-02T12:39:22;8.45;;;2.92;;
73359;SDS011;63092;43.582;19.528;2024-03-02T12:41:48;4.40;;;2.65;;
73359;SDS011;63092;43.582;19.528;2024-03-02T12:44:16;5.55;;;1.90;;
73359;SDS011;63092;43.582;19.528;2024-03-02T12:46:42;6.53;;;2.65;;
73359;SDS011;63092;43.582;19.528;2024-03-02T12:49:09;9.65;;;3.05;;
73359;SDS011;63092;43.582;19.528;2024-03-02T12:51:39;7.30;;;2.50;;
73359;SDS011;63092;43.582;19.528;2024-03-02T12:54:06;11.73;;;3.10;;
73359;SDS011;63092;43.582;19.528;2024-03-02T12:56:34;6.30;;;2.05;;
73359;SDS011;63092;43.582;19.528;2024-03-02T12:59:01;13.25;;;3.90;;
73359;SDS011;63092;43.582;19.528;2024-03-02T13:01:27;9.10;;;2.90;;
73359;SDS011;63092;43.582;19.528;2024-03-02T13:03:54;6.38;;;2.28;;
73359;SDS011;63092;43.582;19.528;2024-03-02T13:06:20;12.02;;;2.97;;
73359;SDS011;63092;43.582;19.528;2024-03-02T13:08:48;7.13;;;2.55;;
73359;SDS011;63092;43.582;19.528;2024-03-02T13:11:15;7.65;;;2.20;;
73359;SDS011;63092;43.582;19.528;2024-03-02T13:13:41;6.68;;;1.83;;
73359;SDS011;63092;43.582;19.528;2024-03-02T13:16:08;8.05;;;2.88;;
73359;SDS011;63092;43.582;19.528;2024-03-02T13:18:35;4.25;;;1.73;;
73359;SDS011;63092;43.582;19.528;2024-03-02T13:21:01;31.42;;;10.55;;
73359;SDS011;63092;43.582;19.528;2024-03-02T13:23:27;11.77;;;5.13;;
73359;SDS011;63092;43.582;19.528;2024-03-02T13:25:56;9.48;;;4.57;;
73359;SDS011;63092;43.582;19.528;2024-03-02T13:28:23;7.35;;;2.45;;
73359;SDS011;63092;43.582;19.528;2024-03-02T13:30:49;7.45;;;2.38;;
73359;SDS011;63092;43.582;19.528;2024-03-02T13:33:15;8.32;;;2.58;;
73359;SDS011;63092;43.582;19.528;2024-03-02T13:35:41;6.88;;;2.10;;
73359;SDS011;63092;43.582;19.528;2024-03-02T13:38:08;10.35;;;4.13;;
73359;SDS011;63092;43.582;19.528;2024-03-02T13:40:34;4.45;;;2.20;;
73359;SDS011;63092;43.582;19.528;2024-03-02T13:43:01;9.25;;;3.67;;
73359;SDS011;63092;43.582;19.528;2024-03-02T13:45:28;7.47;;;2.22;;
73359;SDS011;63092;43.582;19.528;2024-03-02T13:47:54;9.10;;;2.25;;
73359;SDS011;63092;43.582;19.528;2024-03-02T13:50:19;6.38;;;1.88;;
73359;SDS011;63092;43.582;19.528;2024-03-02T13:52:46;5.35;;;2.15;;
73359;SDS011;63092;43.582;19.528;2024-03-02T13:55:12;6.25;;;2.00;;
73359;SDS011;63092;43.582;19.528;2024-03-02T13:57:38;5.38;;;1.90;;
73359;SDS011;63092;43.582;19.528;2024-03-02T14:00:04;5.47;;;1.73;;
73359;SDS011;63092;43.582;19.528;2024-03-02T14:02:35;5.80;;;1.90;;
73359;SDS011;63092;43.582;19.528;2024-03-02T14:05:01;9.10;;;3.45;;
73359;SDS011;63092;43.582;19.528;2024-03-02T14:07:27;5.20;;;2.45;;
73359;SDS011;63092;43.582;19.528;2024-03-02T14:09:53;7.93;;;3.13;;
73359;SDS011;63092;43.582;19.528;2024-03-02T14:12:18;9.93;;;3.75;;
73359;SDS011;63092;43.582;19.528;2024-03-02T14:14:44;7.97;;;2.97;;
73359;SDS011;63092;43.582;19.528;2024-03-02T14:17:10;7.15;;;3.50;;
73359;SDS011;63092;43.582;19.528;2024-03-02T14:19:41;6.63;;;2.53;;
73359;SDS011;63092;43.582;19.528;2024-03-02T14:22:06;8.73;;;3.00;;
73359;SDS011;63092;43.582;19.528;2024-03-02T14:24:32;8.80;;;2.45;;
73359;SDS011;63092;43.582;19.528;2024-03-02T14:26:58;5.43;;;2.50;;
73359;SDS011;63092;43.582;19.528;2024-03-02T14:29:27;8.45;;;3.90;;
73359;SDS011;63092;43.582;19.528;2024-03-02T14:31:52;10.02;;;4.22;;
73359;SDS011;63092;43.582;19.528;2024-03-02T14:34:18;16.48;;;7.07;;
73359;SDS011;63092;43.582;19.528;2024-03-02T14:36:44;15.75;;;6.63;;